Time;durP1;ratioP1;P1;durP2;ratioP2;P2;SDS_P1;SDS_P2;PMS_P1;PMS_P2;Temp;Humidity;BMP_temperature;BMP_pressure;BME280_temperature;BME280_humidity;BME280_pressure;Samples;Min_cycle;Max_cycle;Signal;HPM_P1;HPM_P2
2023/04/16 00:02:23;;;;;;;3.00;0.60;;;14.10;96.70;;;;;;4965395;28;20780;-73
2023/04/16 00:04:52;;;;;;;3.03;0.50;;;14.10;96.70;;;;;;4967315;28;20039;-73
2023/04/16 00:07:20;;;;;;;2.10;0.50;;;14.10;96.70;;;;;;4949035;28;20633;-73
2023/04/16 00:09:50;;;;;;;3.47;0.63;;;14.10;96.70;;;;;;4966897;28;20077;-74
2023/04/16 00:12:18;;;;;;;2.28;0.50;;;14.10;96.70;;;;;;4965446;28;20121;-72
2023/04/16 00:14:48;;;;;;;2.90;0.52;;;14.10;96.70;;;;;;4964462;28;20137;-75
2023/04/16 00:17:16;;;;;;;1.02;0.30;;;14.10;96.70;;;;;;4948364;28;20075;-73
2023/04/16 00:19:44;;;;;;;1.10;0.30;;;14.10;96.70;;;;;;4966370;28;20115;-73
2023/04/16 00:26:21;;;;;;;3.10;0.80;;;14.20;96.70;;;;;;4967148;28;20038;-73
2023/04/16 00:28:50;;;;;;;3.85;1.10;;;14.00;96.70;;;;;;4947446;28;20488;-74
2023/04/16 00:31:26;;;;;;;2.50;1.20;;;14.00;96.70;;;;;;4964205;28;20050;-73
2023/04/16 00:33:56;;;;;;;3.45;1.20;;;13.70;96.70;;;;;;4964208;28;20050;-75
2023/04/16 00:36:28;;;;;;;3.05;1.42;;;13.70;96.70;;;;;;4978986;28;20042;-73
2023/04/16 00:38:57;;;;;;;6.95;1.50;;;13.70;96.70;;;;;;4948078;28;20046;-74
2023/04/16 00:41:27;;;;;;;3.30;1.15;;;13.70;96.70;;;;;;4966410;28;20042;-74
2023/04/16 00:43:55;;;;;;;2.28;1.30;;;13.60;96.70;;;;;;4948182;28;20055;-74
2023/04/16 00:46:24;;;;;;;3.85;1.17;;;13.70;96.70;;;;;;4965798;28;20050;-73
2023/04/16 00:48:54;;;;;;;2.85;1.20;;;13.80;96.70;;;;;;4963309;28;20050;-73
2023/04/16 01:16:41;;;;;;;2.17;1.27;;;13.40;96.70;;;;;;4962736;28;20138;-73
2023/04/16 01:19:09;;;;;;;3.38;1.30;;;13.40;96.70;;;;;;4946020;28;20047;-73
2023/04/16 01:21:39;;;;;;;4.00;1.73;;;13.40;96.70;;;;;;4965596;28;20122;-73
2023/04/16 01:24:07;;;;;;;5.57;1.90;;;13.40;96.70;;;;;;4962051;28;20047;-73
2023/04/16 02:17:17;;;;;;;6.82;1.35;;;13.00;96.70;;;;;;4941892;28;20057;-73
2023/04/16 02:19:49;;;;;;;2.67;0.77;;;13.10;96.70;;;;;;4963938;28;20501;-73
2023/04/16 02:22:18;;;;;;;2.00;0.65;;;13.10;96.70;;;;;;4961140;28;20047;-73
2023/04/16 02:24:49;;;;;;;5.57;1.08;;;13.20;96.70;;;;;;4962599;28;20137;-73
2023/04/16 02:27:18;;;;;;;2.85;0.80;;;13.20;96.70;;;;;;4960750;28;20044;-73
2023/04/16 02:29:50;;;;;;;2.08;0.68;;;13.20;96.70;;;;;;4961401;28;20866;-73
2023/04/16 02:57:42;;;;;;;3.00;0.70;;;12.90;96.70;;;;;;4966934;28;20057;-73
2023/04/16 03:00:13;;;;;;;4.88;1.13;;;12.80;96.70;;;;;;4962905;28;20161;-73
2023/04/16 03:02:42;;;;;;;4.43;0.82;;;12.70;96.70;;;;;;4962157;28;20055;-73
2023/04/16 03:05:11;;;;;;;4.00;1.20;;;12.60;96.70;;;;;;4962513;28;20138;-74
2023/04/16 03:07:39;;;;;;;5.20;1.05;;;12.60;96.70;;;;;;4964095;28;20097;-73
2023/04/16 03:10:08;;;;;;;2.85;0.82;;;12.60;96.70;;;;;;4962728;28;20039;-74
2023/04/16 03:12:38;;;;;;;4.53;0.88;;;12.50;96.70;;;;;;4961260;28;20051;-73
2023/04/16 03:15:07;;;;;;;5.03;1.00;;;12.40;96.70;;;;;;4963979;28;20043;-73
2023/04/16 03:17:35;;;;;;;3.90;0.70;;;12.50;96.70;;;;;;4964122;28;20055;-73
2023/04/16 03:20:05;;;;;;;2.53;0.90;;;12.30;96.70;;;;;;4963654;28;20053;-74
2023/04/16 03:43:38;;;;;;;3.97;0.70;;;12.50;96.70;;;;;;4968062;28;20112;-74
2023/04/16 03:46:07;;;;;;;2.78;0.85;;;12.50;96.70;;;;;;4962213;28;20051;-73
2023/04/16 03:48:35;;;;;;;1.67;0.57;;;12.40;96.70;;;;;;4961337;28;20050;-73
2023/04/16 03:51:04;;;;;;;2.35;0.50;;;12.30;96.70;;;;;;4961372;28;20787;-73
2023/04/16 03:53:33;;;;;;;3.05;0.40;;;12.30;96.70;;;;;;4962132;28;20053;-73
2023/04/16 04:50:55;;;;;;;2.17;0.60;;;12.80;96.70;;;;;;4943101;28;20197;-72
2023/04/16 04:53:24;;;;;;;1.63;0.40;;;12.80;96.70;;;;;;4964294;28;20121;-73
2023/04/16 04:55:51;;;;;;;3.13;0.43;;;12.90;96.70;;;;;;4964879;28;20046;-72
2023/04/16 04:58:25;;;;;;;3.38;0.68;;;12.90;96.70;;;;;;4964887;28;20046;-72
2023/04/16 05:00:53;;;;;;;1.48;0.35;;;12.80;96.70;;;;;;4963695;28;20043;-73
2023/04/16 05:03:21;;;;;;;2.08;0.35;;;12.90;96.70;;;;;;4965823;28;20062;-73
2023/04/16 05:05:49;;;;;;;1.58;0.47;;;12.90;96.70;;;;;;4966470;28;20039;-73
2023/04/16 05:08:19;;;;;;;3.38;0.40;;;12.90;96.70;;;;;;4966129;28;20043;-73
2023/04/16 05:10:47;;;;;;;1.98;0.47;;;13.00;96.70;;;;;;4965223;28;20120;-73
2023/04/16 05:13:15;;;;;;;1.83;0.38;;;13.10;96.70;;;;;;4965227;28;20059;-73
2023/04/16 05:15:44;;;;;;;1.63;0.40;;;13.10;96.70;;;;;;4965995;28;20066;-73
2023/04/16 05:18:12;;;;;;;1.85;0.45;;;13.10;96.70;;;;;;4966052;28;20491;-73
2023/04/16 05:20:40;;;;;;;1.83;0.50;;;13.10;96.70;;;;;;4966353;28;20693;-73
2023/04/16 05:23:08;;;;;;;2.80;0.73;;;13.10;96.70;;;;;;4965958;28;20573;-73
2023/04/16 05:25:38;;;;;;;2.33;0.32;;;13.10;96.70;;;;;;4964750;28;20046;-73
2023/04/16 05:28:06;;;;;;;2.85;0.40;;;13.20;96.70;;;;;;4963499;28;20046;-73
2023/04/16 05:30:34;;;;;;;2.63;0.60;;;13.10;96.70;;;;;;4976338;28;20070;-73
2023/04/16 05:33:02;;;;;;;3.47;0.40;;;13.20;96.70;;;;;;4958270;28;20051;-73
2023/04/16 05:35:30;;;;;;;2.30;0.55;;;13.20;96.70;;;;;;4964691;28;20885;-73
2023/04/16 05:37:58;;;;;;;1.25;0.38;;;13.20;96.70;;;;;;4981877;28;20053;-73
2023/04/16 05:40:26;;;;;;;2.00;0.43;;;13.20;96.70;;;;;;4962884;28;20047;-73
2023/04/16 05:42:56;;;;;;;1.90;0.70;;;13.30;96.70;;;;;;4964068;28;20527;-73
2023/04/16 05:45:24;;;;;;;1.50;0.40;;;13.40;96.70;;;;;;4963630;28;20109;-74
2023/04/16 05:47:54;;;;;;;3.20;0.65;;;13.40;96.70;;;;;;4963645;28;20829;-73
2023/04/16 05:50:22;;;;;;;0.65;0.32;;;13.50;96.70;;;;;;4964347;28;20043;-73
2023/04/16 05:52:50;;;;;;;1.42;0.40;;;13.50;96.70;;;;;;4963342;28;20441;-73
2023/04/16 05:55:18;;;;;;;1.33;0.40;;;13.60;96.70;;;;;;4964591;28;20378;-73
2023/04/16 05:57:46;;;;;;;2.00;0.40;;;13.60;96.70;;;;;;4963138;28;20667;-73
2023/04/16 06:00:16;;;;;;;1.80;0.50;;;13.60;96.70;;;;;;4963216;28;20073;-73
2023/04/16 06:02:44;;;;;;;2.47;0.85;;;13.70;96.70;;;;;;4963572;28;20050;-73
2023/04/16 06:05:13;;;;;;;1.35;0.30;;;13.70;96.70;;;;;;4964864;28;20043;-73
2023/04/16 06:07:41;;;;;;;1.55;0.40;;;13.80;96.70;;;;;;4961620;28;20059;-74
2023/04/16 06:10:10;;;;;;;1.27;0.30;;;13.90;96.70;;;;;;4963506;28;20039;-73
2023/04/16 06:12:37;;;;;;;1.60;0.40;;;13.90;96.70;;;;;;4962701;28;20315;-73
2023/04/16 06:15:07;;;;;;;1.52;0.35;;;13.90;96.70;;;;;;4963133;28;20868;-73
2023/04/16 06:17:36;;;;;;;1.75;0.50;;;13.90;96.70;;;;;;4962655;28;20050;-73
2023/04/16 06:20:05;;;;;;;3.33;0.60;;;13.90;96.70;;;;;;4963015;28;20137;-73
2023/04/16 06:22:33;;;;;;;1.80;0.50;;;14.00;96.70;;;;;;4964652;28;20051;-74
2023/04/16 06:25:01;;;;;;;0.85;0.40;;;14.00;96.70;;;;;;4964032;28;20051;-73
2023/04/16 06:27:30;;;;;;;1.42;0.70;;;14.10;96.70;;;;;;4963957;28;20484;-74
2023/04/16 06:29:58;;;;;;;1.60;0.50;;;14.10;96.70;;;;;;4961220;28;20042;-73
2023/04/16 06:32:26;;;;;;;2.25;0.40;;;14.10;96.70;;;;;;4964543;28;20051;-73
2023/04/16 06:34:57;;;;;;;2.53;0.40;;;14.20;96.70;;;;;;4962421;28;20409;-73
2023/04/16 06:37:25;;;;;;;0.50;0.28;;;14.20;96.70;;;;;;4964775;28;20038;-73
2023/04/16 06:39:53;;;;;;;2.58;0.45;;;14.30;96.70;;;;;;4966175;28;20042;-73
2023/04/16 06:42:22;;;;;;;1.15;0.30;;;14.40;96.70;;;;;;4964065;28;20125;-73
2023/04/16 06:44:50;;;;;;;1.42;0.38;;;14.40;96.70;;;;;;4961884;28;20048;-73
2023/04/16 06:47:18;;;;;;;2.67;0.40;;;14.40;96.70;;;;;;4964302;28;20039;-74
2023/04/16 06:49:46;;;;;;;0.50;0.20;;;14.40;96.70;;;;;;4964130;28;20085;-73
2023/04/16 06:52:16;;;;;;;0.70;0.30;;;14.40;96.70;;;;;;4962210;28;20689;-74
2023/04/16 06:54:44;;;;;;;1.15;0.25;;;14.50;96.70;;;;;;4952835;28;20401;-73
2023/04/16 06:57:12;;;;;;;1.95;0.40;;;14.50;96.70;;;;;;4959742;28;20391;-73
2023/04/16 06:59:40;;;;;;;1.95;0.45;;;14.50;96.70;;;;;;4962778;28;20046;-73
2023/04/16 07:02:09;;;;;;;1.30;0.60;;;14.60;96.70;;;;;;4959854;28;20121;-73
2023/04/16 07:04:37;;;;;;;1.63;0.40;;;14.60;96.70;;;;;;4963182;28;20042;-73
2023/04/16 07:07:05;;;;;;;1.42;0.40;;;14.60;96.70;;;;;;4956202;28;20086;-73
2023/04/16 07:09:35;;;;;;;0.73;0.40;;;14.70;96.70;;;;;;4961432;28;20121;-73
2023/04/16 07:12:03;;;;;;;1.83;0.50;;;14.70;96.70;;;;;;4962623;28;20090;-74
2023/04/16 07:14:31;;;;;;;1.23;0.40;;;14.70;96.70;;;;;;4961984;28;20089;-73
2023/04/16 07:17:00;;;;;;;1.05;0.50;;;14.80;96.70;;;;;;4962431;28;20047;-74
2023/04/16 07:19:31;;;;;;;1.27;0.55;;;14.80;96.70;;;;;;4963418;28;20058;-74
2023/04/16 07:21:59;;;;;;;1.80;0.60;;;14.90;96.70;;;;;;4963405;28;20059;-73
2023/04/16 07:24:27;;;;;;;1.08;0.40;;;14.90;96.70;;;;;;4958522;28;20070;-73
2023/04/16 07:26:57;;;;;;;1.42;0.30;;;15.00;96.70;;;;;;4961958;28;21043;-73
2023/04/16 07:29:24;;;;;;;1.52;0.52;;;15.00;96.70;;;;;;4961806;28;20120;-74
2023/04/16 07:31:53;;;;;;;1.60;0.50;;;15.10;96.70;;;;;;4966609;28;20055;-74
2023/04/16 07:34:21;;;;;;;0.55;0.22;;;15.20;96.70;;;;;;4964802;28;20153;-73
2023/04/16 07:36:49;;;;;;;0.90;0.30;;;15.20;96.70;;;;;;4967673;28;20492;-73
2023/04/16 07:39:17;;;;;;;1.40;0.30;;;15.20;96.70;;;;;;4962085;28;20587;-75
2023/04/16 07:41:45;;;;;;;1.40;0.28;;;15.20;96.70;;;;;;4959441;28;20102;-74
2023/04/16 07:44:15;;;;;;;1.05;0.20;;;15.20;96.70;;;;;;4960558;28;20069;-78
2023/04/16 07:46:43;;;;;;;1.25;0.30;;;15.20;96.70;;;;;;4956996;28;20074;-77
2023/04/16 07:49:15;;;;;;;1.45;0.40;;;15.20;96.70;;;;;;4962221;28;20046;-74
2023/04/16 07:51:44;;;;;;;0.95;0.40;;;15.30;96.70;;;;;;4961925;28;20055;-74
2023/04/16 07:54:12;;;;;;;0.80;0.30;;;15.40;96.70;;;;;;4957979;28;20118;-74
2023/04/16 07:56:40;;;;;;;0.65;0.30;;;15.40;96.70;;;;;;4962022;28;20481;-74
2023/04/16 07:59:08;;;;;;;1.55;0.38;;;15.50;96.70;;;;;;4962146;28;20256;-74
2023/04/16 08:01:52;;;;;;;2.85;0.25;;;15.60;96.70;;;;;;4961709;28;20079;-73
2023/04/16 08:04:24;;;;;;;0.50;0.20;;;15.60;96.70;;;;;;4945544;28;20085;-73
2023/04/16 08:06:53;;;;;;;0.30;0.20;;;15.70;96.70;;;;;;4961766;28;20420;-75
2023/04/16 08:09:22;;;;;;;0.70;0.20;;;15.70;96.70;;;;;;4962550;28;20134;-74
2023/04/16 08:11:50;;;;;;;1.13;0.50;;;15.70;96.70;;;;;;4963614;28;20051;-74
2023/04/16 08:14:19;;;;;;;2.20;0.40;;;15.70;96.70;;;;;;4959211;28;20062;-73
2023/04/16 08:16:47;;;;;;;3.30;0.40;;;15.90;96.70;;;;;;4959962;28;20039;-74
2023/04/16 08:19:17;;;;;;;1.13;0.30;;;16.00;96.70;;;;;;4955110;28;20050;-75
2023/04/16 08:21:45;;;;;;;0.90;0.22;;;15.90;96.70;;;;;;4956531;28;20502;-75
2023/04/16 08:24:13;;;;;;;0.85;0.38;;;16.00;96.70;;;;;;4970894;28;20042;-74
2023/04/16 08:26:44;;;;;;;0.70;0.30;;;16.00;96.70;;;;;;4962096;28;20046;-74
2023/04/16 08:29:16;;;;;;;0.52;0.30;;;16.00;96.70;;;;;;4959757;28;20047;-74
2023/04/16 08:31:44;;;;;;;0.70;0.30;;;16.10;96.70;;;;;;4966192;28;20475;-74
2023/04/16 08:34:12;;;;;;;3.30;0.50;;;16.10;96.70;;;;;;4964808;28;20513;-74
2023/04/16 08:36:42;;;;;;;1.05;0.30;;;16.20;96.70;;;;;;4958650;28;20082;-73
2023/04/16 08:39:10;;;;;;;2.35;0.30;;;16.20;96.70;;;;;;4962516;28;20045;-73
2023/04/16 08:41:42;;;;;;;2.70;0.40;;;16.30;96.70;;;;;;4969364;28;20046;-75
2023/04/16 08:44:19;;;;;;;0.52;0.30;;;16.50;96.70;;;;;;4966013;28;20528;-77
2023/04/16 08:46:50;;;;;;;0.98;0.40;;;16.50;96.70;;;;;;4959004;28;20690;-75
2023/04/16 08:49:19;;;;;;;1.23;0.20;;;16.40;96.70;;;;;;4952856;28;20093;-76
2023/04/16 08:51:52;;;;;;;0.60;0.20;;;16.50;96.70;;;;;;4964697;28;20051;-74
2023/04/16 08:54:37;;;;;;;0.65;0.30;;;16.50;96.70;;;;;;4944226;28;20053;-75
2023/04/16 08:57:08;;;;;;;0.73;0.40;;;16.60;96.70;;;;;;4963090;28;20917;-76
2023/04/16 08:59:37;;;;;;;0.63;0.25;;;16.70;96.70;;;;;;4964800;28;20051;-72
2023/04/16 09:02:06;;;;;;;0.65;0.38;;;16.80;96.70;;;;;;4966104;28;20388;-72
2023/04/16 09:04:37;;;;;;;3.35;0.43;;;16.80;96.70;;;;;;4963709;28;20564;-74
2023/04/16 09:07:08;;;;;;;2.40;0.45;;;16.90;96.70;;;;;;4964171;28;20470;-73
2023/04/16 09:09:38;;;;;;;1.45;0.30;;;17.00;96.70;;;;;;4963383;28;20054;-74
2023/04/16 09:12:07;;;;;;;1.02;0.30;;;17.00;96.70;;;;;;4964861;28;20102;-72
2023/04/16 09:14:37;;;;;;;0.40;0.25;;;17.00;96.70;;;;;;4965829;28;20050;-72
2023/04/16 09:17:06;;;;;;;0.60;0.10;;;17.00;96.70;;;;;;4965126;28;20496;-73
2023/04/16 09:19:34;;;;;;;0.95;0.20;;;17.10;96.70;;;;;;4947469;28;20682;-73
2023/04/16 09:22:02;;;;;;;1.58;0.30;;;17.10;96.70;;;;;;4956660;28;20054;-74
2023/04/16 09:24:33;;;;;;;2.15;0.43;;;17.10;96.70;;;;;;4963925;28;20069;-72
2023/04/16 09:27:02;;;;;;;5.20;1.02;;;17.10;96.70;;;;;;4962510;28;20049;-72
2023/04/16 09:29:37;;;;;;;1.30;0.32;;;17.20;96.70;;;;;;4975245;28;20051;-72
2023/04/16 09:32:07;;;;;;;2.58;0.20;;;17.30;96.70;;;;;;4946939;28;20117;-73
2023/04/16 09:34:54;;;;;;;3.70;0.30;;;17.40;96.70;;;;;;4963194;28;20057;-70
2023/04/16 09:37:23;;;;;;;1.58;0.20;;;17.40;96.70;;;;;;4964182;28;20590;-72
2023/04/16 09:39:58;;;;;;;1.05;0.20;;;17.30;96.70;;;;;;4961332;28;20132;-70
2023/04/16 09:42:28;;;;;;;1.33;0.20;;;17.40;96.70;;;;;;4960051;28;20058;-71
2023/04/16 09:44:57;;;;;;;2.05;0.30;;;17.40;96.70;;;;;;4964282;28;20122;-71
2023/04/16 09:47:40;;;;;;;0.45;0.20;;;17.40;96.70;;;;;;4965420;28;20035;-72
2023/04/16 09:50:13;;;;;;;2.15;0.20;;;17.50;96.70;;;;;;4963994;28;20142;-72
2023/04/16 09:52:49;;;;;;;1.38;0.22;;;17.60;96.70;;;;;;4964814;28;20154;-71
2023/04/16 09:55:26;;;;;;;0.50;0.17;;;17.60;96.70;;;;;;4963739;28;20505;-72
2023/04/16 09:57:59;;;;;;;0.30;0.10;;;17.70;96.70;;;;;;4965240;28;20054;-73
2023/04/16 10:00:29;;;;;;;3.05;0.20;;;17.70;96.70;;;;;;4978927;28;20042;-73
2023/04/16 10:03:04;;;;;;;0.32;0.22;;;17.70;96.70;;;;;;4958473;28;20050;-72
2023/04/16 10:05:32;;;;;;;2.40;0.15;;;17.80;96.70;;;;;;4947514;28;20074;-73
2023/04/16 10:08:01;;;;;;;1.35;0.30;;;17.90;96.70;;;;;;4963716;28;20061;-79
2023/04/16 10:10:31;;;;;;;0.90;0.22;;;18.00;96.70;;;;;;4963594;28;20419;-73
2023/04/16 10:13:01;;;;;;;2.22;0.40;;;18.10;96.70;;;;;;4962731;28;20440;-72
2023/04/16 10:15:30;;;;;;;0.47;0.28;;;18.20;96.70;;;;;;4962354;28;20050;-72
2023/04/16 10:17:59;;;;;;;3.22;0.50;;;18.10;96.70;;;;;;4963434;28;20552;-73
2023/04/16 10:20:27;;;;;;;0.88;0.30;;;18.20;96.70;;;;;;4963233;28;20058;-73
2023/04/16 10:22:56;;;;;;;0.38;0.28;;;18.30;96.70;;;;;;4962877;28;20526;-74
2023/04/16 10:25:25;;;;;;;2.03;0.30;;;18.30;96.70;;;;;;4963443;28;20043;-72
2023/04/16 10:27:56;;;;;;;0.70;0.10;;;18.30;96.70;;;;;;4957394;28;20050;-73
2023/04/16 10:30:26;;;;;;;1.75;0.28;;;18.40;96.70;;;;;;4963529;28;20142;-72
2023/04/16 10:32:55;;;;;;;0.88;0.30;;;18.50;96.70;;;;;;4962753;28;20216;-71
2023/04/16 10:35:28;;;;;;;1.38;0.47;;;18.40;96.70;;;;;;4956992;28;20497;-72
2023/04/16 10:38:18;;;;;;;1.10;0.50;;;18.30;96.70;;;;;;4941881;28;20066;-72
2023/04/16 10:40:47;;;;;;;1.38;0.40;;;18.40;96.70;;;;;;4956663;28;20038;-73
2023/04/16 10:43:18;;;;;;;0.60;0.20;;;18.50;96.70;;;;;;4956460;28;20428;-75
2023/04/16 10:45:47;;;;;;;0.85;0.45;;;18.60;96.70;;;;;;4959875;28;20641;-73
2023/04/16 10:48:18;;;;;;;0.52;0.20;;;18.60;96.70;;;;;;4957158;28;20050;-70
2023/04/16 10:50:55;;;;;;;0.10;0.10;;;18.60;96.70;;;;;;4954949;28;20154;-69
2023/04/16 10:53:25;;;;;;;0.85;0.20;;;18.70;96.70;;;;;;4951806;28;20043;-70
2023/04/16 10:55:58;;;;;;;0.90;0.20;;;18.70;96.70;;;;;;4953297;28;20079;-73
2023/04/16 10:58:28;;;;;;;2.08;0.20;;;18.80;96.70;;;;;;4958445;28;22113;-73
2023/04/16 11:01:00;;;;;;;0.98;0.10;;;18.90;96.70;;;;;;4955262;28;20054;-73
2023/04/16 11:03:30;;;;;;;0.20;0.10;;;19.00;96.70;;;;;;4952164;28;20592;-73
2023/04/16 11:06:13;;;;;;;0.45;0.20;;;19.00;96.70;;;;;;4953851;28;20082;-73
2023/04/16 11:08:44;;;;;;;0.70;0.20;;;19.00;96.70;;;;;;4956009;28;20122;-72
2023/04/16 11:11:21;;;;;;;0.38;0.20;;;19.00;96.70;;;;;;4961257;28;20054;-71
2023/04/16 11:13:55;;;;;;;0.10;0.10;;;19.00;96.70;;;;;;4956453;28;20518;-71
2023/04/16 11:16:25;;;;;;;1.73;0.40;;;19.10;96.70;;;;;;4956747;28;20038;-72
2023/04/16 11:18:53;;;;;;;1.48;0.30;;;19.20;96.70;;;;;;4955455;28;20047;-72
2023/04/16 11:21:24;;;;;;;2.85;0.20;;;19.10;96.70;;;;;;4958179;28;20047;-72
2023/04/16 11:23:52;;;;;;;0.28;0.10;;;19.30;96.70;;;;;;4958292;28;20154;-72
2023/04/16 11:26:24;;;;;;;0.43;0.20;;;19.30;96.70;;;;;;4955420;28;20090;-77
2023/04/16 11:28:55;;;;;;;2.25;0.20;;;19.40;96.70;;;;;;4962754;28;20058;-73
2023/04/16 11:31:25;;;;;;;1.77;0.30;;;19.50;96.70;;;;;;4960777;28;20049;-71
2023/04/16 11:33:56;;;;;;;1.85;0.22;;;19.70;96.70;;;;;;4957991;28;20051;-70
2023/04/16 11:36:25;;;;;;;1.42;0.47;;;19.70;96.70;;;;;;4961084;28;20046;-70
2023/04/16 11:39:02;;;;;;;1.10;0.20;;;19.80;96.70;;;;;;4961322;28;20713;-71
2023/04/16 11:41:30;;;;;;;0.73;0.20;;;19.90;96.70;;;;;;4961472;28;20166;-73
2023/04/16 11:44:00;;;;;;;0.47;0.20;;;19.90;96.70;;;;;;4968499;28;20047;-71
2023/04/16 11:46:38;;;;;;;0.35;0.17;;;20.00;96.70;;;;;;4962372;28;20047;-70
2023/04/16 11:49:07;;;;;;;1.08;0.10;;;20.10;96.70;;;;;;4955587;28;20097;-71
2023/04/16 11:51:40;;;;;;;0.85;0.20;;;20.10;96.70;;;;;;4959517;28;20051;-73
2023/04/16 11:54:09;;;;;;;1.60;0.10;;;20.30;96.70;;;;;;4959604;28;20527;-76
2023/04/16 11:56:48;;;;;;;0.80;0.20;;;20.30;96.70;;;;;;4965476;28;20117;-76
2023/04/16 11:59:19;;;;;;;1.45;0.20;;;20.30;96.70;;;;;;4958769;28;20078;-74
2023/04/16 12:01:49;;;;;;;0.50;0.10;;;20.30;96.70;;;;;;4964921;28;20042;-72
2023/04/16 12:04:19;;;;;;;1.05;0.30;;;20.50;96.70;;;;;;4959803;28;20418;-73
2023/04/16 12:07:11;;;;;;;1.75;0.25;;;20.50;96.70;;;;;;4957285;28;20074;-70
2023/04/16 12:09:41;;;;;;;0.57;0.20;;;20.40;96.70;;;;;;4960014;28;20050;-72
2023/04/16 12:12:26;;;;;;;0.82;0.17;;;20.50;96.70;;;;;;4955046;28;20051;-73
2023/04/16 12:14:58;;;;;;;0.82;0.25;;;20.50;96.70;;;;;;4957167;28;20678;-71
2023/04/16 12:17:26;;;;;;;0.57;0.20;;;20.70;96.70;;;;;;4958484;28;20051;-71
2023/04/16 12:19:57;;;;;;;1.25;0.10;;;20.90;96.70;;;;;;4960478;28;20058;-70
2023/04/16 12:22:30;;;;;;;0.70;0.20;;;20.70;96.70;;;;;;4959884;28;20428;-70
2023/04/16 12:24:59;;;;;;;0.40;0.15;;;20.70;96.70;;;;;;4956405;28;20509;-71
2023/04/16 12:27:41;;;;;;;0.63;0.10;;;20.70;96.70;;;;;;4961595;28;20733;-72
2023/04/16 12:30:12;;;;;;;1.58;0.30;;;20.70;96.70;;;;;;4965616;28;20488;-72
2023/04/16 12:32:41;;;;;;;1.40;0.20;;;20.70;96.70;;;;;;4960188;28;20046;-72
2023/04/16 12:35:10;;;;;;;1.35;0.20;;;20.80;96.70;;;;;;4959270;28;20681;-74
2023/04/16 12:37:39;;;;;;;0.93;0.10;;;21.00;96.70;;;;;;4959629;28;20093;-73
2023/04/16 12:40:08;;;;;;;0.70;0.10;;;21.20;96.70;;;;;;4958409;28;20046;-71
2023/04/16 12:42:37;;;;;;;0.73;0.30;;;21.40;96.70;;;;;;4961165;28;20130;-71
2023/04/16 12:45:06;;;;;;;0.40;0.10;;;21.40;96.70;;;;;;4964528;28;20055;-74
2023/04/16 12:47:36;;;;;;;1.13;0.10;;;21.20;96.70;;;;;;4951886;28;20043;-72
2023/04/16 12:50:06;;;;;;;1.17;0.30;;;21.10;96.70;;;;;;4961914;28;20051;-71
2023/04/16 12:52:34;;;;;;;0.55;0.10;;;21.30;96.70;;;;;;4966034;28;20042;-74
2023/04/16 12:55:03;;;;;;;1.30;0.30;;;21.50;96.70;;;;;;4965336;28;20051;-73
2023/04/16 12:57:31;;;;;;;1.60;0.20;;;21.40;96.70;;;;;;4965068;28;20042;-72
2023/04/16 12:59:59;;;;;;;0.82;0.25;;;21.40;96.70;;;;;;4955568;28;20529;-71
2023/04/16 13:02:27;;;;;;;1.15;0.30;;;21.40;96.70;;;;;;4960883;28;20034;-73
2023/04/16 13:04:57;;;;;;;5.53;0.20;;;21.30;96.70;;;;;;4963226;28;20055;-73
2023/04/16 13:07:25;;;;;;;0.30;0.10;;;21.40;96.70;;;;;;4961655;28;20047;-72
2023/04/16 13:09:53;;;;;;;2.00;0.20;;;21.50;96.70;;;;;;4963191;28;20532;-72
2023/04/16 13:12:21;;;;;;;1.67;0.25;;;21.50;96.70;;;;;;4964532;28;20073;-74
2023/04/16 13:14:49;;;;;;;0.98;0.20;;;21.50;96.70;;;;;;4964253;28;20049;-74
2023/04/16 13:17:17;;;;;;;0.82;0.38;;;21.70;96.70;;;;;;4965482;28;20098;-75
2023/04/16 13:19:45;;;;;;;0.60;0.10;;;21.70;96.70;;;;;;4964341;28;20138;-73
2023/04/16 13:22:15;;;;;;;0.20;0.10;;;21.60;96.70;;;;;;4964059;28;20476;-73
2023/04/16 13:24:43;;;;;;;3.88;0.30;;;21.50;96.70;;;;;;4963102;28;20491;-73
2023/04/16 13:27:12;;;;;;;0.85;0.30;;;21.50;96.70;;;;;;4964171;28;20105;-73
2023/04/16 13:29:40;;;;;;;0.50;0.15;;;21.50;96.70;;;;;;4964339;28;20191;-72
2023/04/16 13:32:08;;;;;;;0.90;0.20;;;21.70;96.70;;;;;;4965790;28;20046;-72
2023/04/16 13:34:36;;;;;;;0.82;0.20;;;22.00;96.70;;;;;;4960309;28;20038;-71
2023/04/16 13:37:05;;;;;;;0.28;0.10;;;22.20;96.70;;;;;;4955210;28;20046;-73
2023/04/16 13:39:34;;;;;;;2.85;0.20;;;22.10;96.70;;;;;;4964243;28;20047;-72
2023/04/16 13:42:02;;;;;;;3.05;0.30;;;21.80;96.70;;;;;;4965436;28;20050;-73
2023/04/16 13:44:30;;;;;;;1.08;0.20;;;21.60;96.70;;;;;;4963635;28;20055;-73
2023/04/16 13:46:58;;;;;;;1.48;0.10;;;21.70;96.70;;;;;;4965128;28;20065;-73
2023/04/16 13:49:26;;;;;;;0.45;0.10;;;22.40;96.70;;;;;;4966466;28;20058;-74
2023/04/16 13:51:54;;;;;;;0.90;0.10;;;22.80;96.70;;;;;;4969642;28;20084;-74
2023/04/16 13:54:22;;;;;;;4.70;0.47;;;23.00;96.70;;;;;;4963373;28;20142;-73
2023/04/16 13:56:51;;;;;;;4.00;0.20;;;22.80;96.70;;;;;;4965530;28;20404;-74
2023/04/16 13:59:20;;;;;;;0.65;0.10;;;23.10;96.70;;;;;;4964554;28;20043;-73
2023/04/16 14:01:48;;;;;;;1.33;0.10;;;23.40;96.70;;;;;;4963737;28;20077;-73
2023/04/16 14:04:16;;;;;;;1.25;0.13;;;23.70;96.70;;;;;;4955277;28;20051;-74
2023/04/16 14:06:45;;;;;;;0.45;0.20;;;23.90;96.70;;;;;;4964463;28;20428;-74
2023/04/16 14:09:13;;;;;;;1.08;0.10;;;24.10;96.70;;;;;;4965207;28;20101;-73
2023/04/16 14:11:41;;;;;;;0.80;0.10;;;24.10;96.50;;;;;;4964763;28;20042;-74
2023/04/16 14:14:11;;;;;;;0.22;0.10;;;24.30;96.20;;;;;;4962606;28;20047;-73
2023/04/16 14:16:39;;;;;;;2.58;0.20;;;24.60;95.10;;;;;;4961874;28;20059;-73
2023/04/16 14:19:07;;;;;;;0.85;0.10;;;25.00;94.20;;;;;;4963476;28;20953;-73
2023/04/16 14:21:36;;;;;;;1.45;0.10;;;25.10;93.80;;;;;;4963532;28;20061;-75
2023/04/16 14:24:05;;;;;;;1.83;0.10;;;25.10;92.50;;;;;;4964562;28;20039;-73
2023/04/16 14:26:33;;;;;;;0.30;0.10;;;24.80;91.00;;;;;;4962536;28;20047;-74
2023/04/16 14:29:01;;;;;;;0.57;0.10;;;25.20;92.00;;;;;;4962611;28;20145;-74
2023/04/16 14:31:32;;;;;;;2.20;0.13;;;25.60;92.10;;;;;;4957028;28;20126;-73
2023/04/16 14:34:00;;;;;;;2.63;0.20;;;26.10;92.30;;;;;;4965533;28;20186;-74
2023/04/16 14:36:30;;;;;;;1.95;0.10;;;26.50;92.30;;;;;;4960958;28;20125;-75
2023/04/16 14:38:58;;;;;;;1.35;0.20;;;26.60;90.00;;;;;;4962514;28;20047;-74
2023/04/16 14:41:26;;;;;;;0.20;0.15;;;27.00;90.00;;;;;;4963826;28;20126;-73
2023/04/16 14:43:54;;;;;;;1.13;0.20;;;27.40;91.00;;;;;;4961547;28;20066;-74
2023/04/16 14:46:23;;;;;;;1.95;0.20;;;27.70;91.00;;;;;;4961922;28;20043;-74
2023/04/16 14:48:53;;;;;;;0.30;0.10;;;27.90;90.70;;;;;;4961879;28;20047;-75
2023/04/16 14:51:21;;;;;;;0.60;0.20;;;28.10;87.50;;;;;;4962006;28;20065;-74
2023/04/16 14:53:49;;;;;;;1.35;0.10;;;28.20;88.00;;;;;;4962623;28;20050;-74
2023/04/16 14:56:17;;;;;;;0.55;0.10;;;28.20;87.50;;;;;;4963319;28;20417;-74
2023/04/16 14:58:45;;;;;;;0.50;0.10;;;28.20;85.80;;;;;;4961879;28;20165;-74
2023/04/16 15:01:13;;;;;;;1.75;0.10;;;28.40;84.50;;;;;;4962199;28;20073;-74
2023/04/16 15:03:42;;;;;;;2.03;0.20;;;28.60;84.40;;;;;;4963912;28;20050;-73
2023/04/16 15:06:13;;;;;;;0.43;0.20;;;28.80;84.20;;;;;;4962157;28;20043;-74
2023/04/16 15:08:41;;;;;;;0.60;0.20;;;29.10;83.90;;;;;;4962520;28;20046;-73
2023/04/16 15:11:09;;;;;;;0.68;0.20;;;29.20;84.00;;;;;;4956279;28;20066;-73
2023/04/16 15:13:37;;;;;;;0.68;0.40;;;29.00;82.70;;;;;;4961622;28;20050;-74
2023/04/16 15:16:06;;;;;;;0.98;0.20;;;28.60;81.20;;;;;;4960240;28;20055;-73
2023/04/16 15:18:34;;;;;;;0.43;0.20;;;28.50;81.50;;;;;;4961960;28;20046;-74
2023/04/16 15:21:03;;;;;;;0.40;0.20;;;28.40;81.10;;;;;;4961906;28;20058;-73
2023/04/16 15:23:33;;;;;;;1.05;0.20;;;28.70;81.30;;;;;;4960067;28;20432;-71
2023/04/16 15:26:01;;;;;;;0.63;0.30;;;28.80;80.20;;;;;;4963015;28;20106;-72
2023/04/16 15:28:29;;;;;;;1.15;0.10;;;28.70;79.90;;;;;;4945505;28;20043;-71
2023/04/16 15:30:57;;;;;;;0.85;0.20;;;28.60;78.70;;;;;;4961918;28;20056;-72
2023/04/16 15:33:25;;;;;;;0.35;0.13;;;28.10;78.50;;;;;;4960495;28;20034;-71
2023/04/16 15:35:53;;;;;;;0.30;0.25;;;28.10;79.60;;;;;;4961429;28;20089;-71
2023/04/16 15:38:22;;;;;;;0.20;0.20;;;28.60;80.00;;;;;;4959689;28;20047;-71
2023/04/16 15:40:51;;;;;;;0.57;0.20;;;28.90;79.70;;;;;;4964006;28;20504;-72
2023/04/16 15:43:19;;;;;;;0.90;0.20;;;28.80;79.20;;;;;;4961685;28;20149;-72
2023/04/16 15:45:47;;;;;;;0.85;0.30;;;28.90;80.00;;;;;;4951168;28;20051;-71
2023/04/16 15:48:15;;;;;;;0.73;0.22;;;28.90;80.40;;;;;;4961814;28;20035;-71
2023/04/16 15:50:43;;;;;;;1.42;0.20;;;29.10;81.20;;;;;;4962139;28;20063;-73
2023/04/16 15:53:11;;;;;;;0.38;0.20;;;29.40;80.50;;;;;;4944977;28;20070;-73
2023/04/16 15:55:40;;;;;;;1.08;0.30;;;29.60;80.90;;;;;;4963523;28;20420;-71
2023/04/16 15:58:10;;;;;;;1.30;0.20;;;29.70;81.20;;;;;;4964168;28;20043;-71
2023/04/16 16:00:38;;;;;;;1.20;0.20;;;29.90;79.60;;;;;;4948358;28;20046;-71
2023/04/16 16:03:05;;;;;;;0.63;0.10;;;29.90;80.60;;;;;;4961427;28;20501;-72